createdAt,value
2024-05-09T00:01:23.788Z,22.14
2024-05-09T00:06:26.118Z,23.96
2024-05-09T00:11:28.544Z,23.27
2024-05-09T00:16:30.875Z,24.28
2024-05-09T00:21:33.119Z,23.65
2024-05-09T00:26:35.484Z,21.62
2024-05-09T00:31:37.796Z,22.24
2024-05-09T00:36:40.112Z,21.23
2024-05-09T00:41:42.432Z,22.46
2024-05-09T00:46:44.874Z,22.08
2024-05-09T00:51:47.299Z,22.96
2024-05-09T00:56:52.403Z,21.10
2024-05-09T01:01:54.901Z,21.97
2024-05-09T01:06:57.220Z,23.15
2024-05-09T01:11:59.619Z,24.21
2024-05-09T01:17:01.988Z,24.31
2024-05-09T01:22:04.675Z,25.36
2024-05-09T01:27:06.955Z,26.55
2024-05-09T01:32:09.347Z,27.24
2024-05-09T01:37:11.677Z,26.51
2024-05-09T01:42:14.078Z,24.62
2024-05-09T01:47:16.427Z,25.35
2024-05-09T01:52:18.826Z,26.35
2024-05-09T01:57:21.184Z,25.77
2024-05-09T02:02:23.533Z,24.17
2024-05-09T02:07:26.135Z,24.90
2024-05-09T02:12:28.530Z,26.07
2024-05-09T02:17:31.198Z,24.93
2024-05-09T02:22:33.589Z,26.80
2024-05-09T02:27:36.458Z,24.24
2024-05-09T02:32:38.983Z,24.46
2024-05-09T02:37:41.356Z,21.32
2024-05-09T02:42:43.670Z,24.54
2024-05-09T02:47:46.163Z,24.45
2024-05-09T02:52:48.564Z,25.33
2024-05-09T02:57:51.027Z,23.85
2024-05-09T03:02:53.435Z,26.28
2024-05-09T03:07:55.830Z,24.51
2024-05-09T03:12:58.114Z,26.78
2024-05-09T03:18:01.411Z,23.82
2024-05-09T03:23:05.353Z,23.43
2024-05-09T03:28:08.102Z,24.83
2024-05-09T03:33:19.392Z,24.97
2024-05-09T03:38:22.812Z,24.69
2024-05-09T03:43:25.117Z,24.70
2024-05-09T03:48:27.544Z,23.01
2024-05-09T03:53:29.988Z,19.14
2024-05-09T03:58:33.078Z,18.84
2024-05-09T04:03:35.475Z,21.12
2024-05-09T04:08:37.819Z,19.40
2024-05-09T04:13:40.125Z,21.91
2024-05-09T04:18:42.460Z,21.46
2024-05-09T04:23:44.834Z,22.55
2024-05-09T04:28:47.174Z,22.71
2024-05-09T04:33:49.716Z,21.53
2024-05-09T04:38:52.077Z,20.20
2024-05-09T04:43:54.364Z,20.42
2024-05-09T04:48:56.710Z,20.42
2024-05-09T04:53:59.066Z,19.77
2024-05-09T04:59:01.403Z,20.38
2024-05-09T05:04:03.777Z,19.55
2024-05-09T05:09:06.230Z,21.21
2024-05-09T05:14:08.585Z,21.70
2024-05-09T05:19:13.402Z,19.83
2024-05-09T05:24:17.359Z,19.11
2024-05-09T05:29:20.862Z,19.63
2024-05-09T05:34:23.297Z,20.48
2024-05-09T05:39:25.559Z,20.54
2024-05-09T05:44:28.002Z,20.00
2024-05-09T05:49:30.388Z,20.25
2024-05-09T05:54:32.907Z,19.81
2024-05-09T05:59:35.219Z,22.03
2024-05-09T06:04:37.524Z,18.68
2024-05-09T06:09:39.824Z,20.50
2024-05-09T06:14:42.175Z,20.82
2024-05-09T06:19:44.745Z,21.04
2024-05-09T06:24:47.187Z,19.41
2024-05-09T06:29:49.653Z,22.36
2024-05-09T06:34:51.922Z,21.36
2024-05-09T06:39:54.241Z,20.55
2024-05-09T06:44:56.600Z,20.47
2024-05-09T06:49:58.926Z,20.84
2024-05-09T06:55:01.244Z,21.77
2024-05-09T07:00:03.893Z,21.35
2024-05-09T07:05:06.661Z,21.17
2024-05-09T07:10:12.258Z,22.41
2024-05-09T07:15:17.373Z,20.63
2024-05-09T07:20:27.498Z,20.25
2024-05-09T07:25:36.282Z,21.41
2024-05-09T07:30:38.642Z,20.27
2024-05-09T07:35:40.941Z,22.09
2024-05-09T07:40:43.399Z,23.09
2024-05-09T07:45:52.481Z,21.94
2024-05-09T07:52:42.902Z,22.49
2024-05-09T07:56:21.729Z,23.05
2024-05-09T08:01:28.390Z,23.75
2024-05-09T08:06:30.784Z,23.65
2024-05-09T08:11:33.366Z,23.07
2024-05-09T08:16:35.674Z,21.33
2024-05-09T08:21:38.038Z,21.42
2024-05-09T08:26:40.298Z,22.00
2024-05-09T08:31:42.904Z,22.89
2024-05-09T08:36:45.250Z,22.23
2024-05-09T08:41:53.702Z,22.07
2024-05-09T08:46:56.650Z,24.65
2024-05-09T08:51:59.013Z,24.32
2024-05-09T08:57:02.288Z,23.26
2024-05-09T09:02:13.703Z,23.76
2024-05-09T09:07:16.322Z,21.35
2024-05-09T09:12:18.640Z,25.17
2024-05-09T09:17:20.969Z,25.15
2024-05-09T09:22:23.357Z,25.42
2024-05-09T09:27:25.717Z,25.11
2024-05-09T09:32:30.984Z,26.23
2024-05-09T09:37:34.977Z,25.89
2024-05-09T09:42:38.431Z,25.56
2024-05-09T09:47:42.045Z,25.13
2024-05-09T09:52:45.363Z,25.72
2024-05-09T09:57:49.590Z,25.63
2024-05-09T10:02:51.961Z,23.72
2024-05-09T10:07:55.750Z,23.56
2024-05-09T10:13:05.888Z,25.35
2024-05-09T10:18:08.484Z,24.05
2024-05-09T10:23:34.604Z,24.39
2024-05-09T10:28:37.521Z,26.19
2024-05-09T10:33:45.824Z,25.28
2024-05-09T10:38:53.207Z,25.80
2024-05-09T10:43:55.531Z,25.57
2024-05-09T10:49:00.347Z,25.27
2024-05-09T10:54:04.043Z,25.77
2024-05-09T10:59:06.592Z,26.55
2024-05-09T11:04:09.379Z,25.42
2024-05-09T11:09:12.094Z,26.30
2024-05-09T11:14:14.496Z,24.51
2024-05-09T11:19:19.731Z,27.62
2024-05-09T11:24:23.579Z,26.30
2024-05-09T11:29:47.442Z,27.87
2024-05-09T11:34:49.709Z,27.67
2024-05-09T11:39:53.937Z,28.53
2024-05-09T11:44:56.228Z,26.32
2024-05-09T11:49:58.532Z,27.52
2024-05-09T11:55:02.841Z,28.19
2024-05-09T12:00:07.390Z,28.10
2024-05-09T12:05:11.905Z,28.14
2024-05-09T12:10:19.588Z,25.99
2024-05-09T12:15:24.846Z,27.74
2024-05-09T12:20:35.287Z,27.25
2024-05-09T12:25:40.723Z,27.02
2024-05-09T12:30:43.142Z,26.75
2024-05-09T12:35:47.368Z,27.01
2024-05-09T12:40:51.749Z,27.43
2024-05-09T12:45:54.186Z,26.01
2024-05-09T12:50:57.752Z,28.23
2024-05-09T12:56:02.437Z,27.84
2024-05-09T13:01:06.301Z,28.18
2024-05-09T13:06:09.190Z,30.30
2024-05-09T13:11:11.620Z,27.93
2024-05-09T13:16:14.087Z,28.59
2024-05-09T13:21:16.529Z,29.83
2024-05-09T13:26:18.934Z,27.44
2024-05-09T13:31:21.206Z,26.89
2024-05-09T13:36:23.672Z,28.82
2024-05-09T13:41:25.935Z,27.23
2024-05-09T13:46:28.358Z,29.07
2024-05-09T13:51:30.725Z,27.47
2024-05-09T13:56:33.025Z,27.63
2024-05-09T14:01:35.355Z,27.78
2024-05-09T14:06:38.432Z,26.36
2024-05-09T14:11:40.783Z,30.19
2024-05-09T14:16:43.578Z,27.29
2024-05-09T14:21:46.054Z,27.58
2024-05-09T14:26:48.698Z,27.99
2024-05-09T14:31:50.999Z,29.65
2024-05-09T14:36:53.340Z,28.64
2024-05-09T14:41:55.643Z,28.74
2024-05-09T14:46:58.072Z,28.96
2024-05-09T14:52:00.370Z,28.62
2024-05-09T14:57:03.075Z,30.11
2024-05-09T15:02:05.456Z,28.04
2024-05-09T15:07:08.337Z,29.04
2024-05-09T15:12:12.583Z,30.21
2024-05-09T15:17:14.909Z,29.00
2024-05-09T15:22:17.629Z,29.58
2024-05-09T15:27:19.933Z,29.17
2024-05-09T15:32:22.269Z,27.42
2024-05-09T15:37:24.812Z,29.82
2024-05-09T15:42:27.299Z,27.95
2024-05-09T15:47:29.730Z,30.28
2024-05-09T15:52:32.036Z,29.83
2024-05-09T15:57:34.376Z,28.96
2024-05-09T16:02:36.840Z,29.81
2024-05-09T16:07:39.314Z,29.13
2024-05-09T16:12:41.645Z,26.70
2024-05-09T16:17:45.165Z,31.39
2024-05-09T16:22:47.484Z,28.04
2024-05-09T16:27:51.704Z,28.91
2024-05-09T16:32:54.116Z,29.61
2024-05-09T16:37:56.575Z,29.59
2024-05-09T16:43:00.145Z,31.03
2024-05-09T16:48:02.942Z,30.18
2024-05-09T16:53:06.566Z,30.72
2024-05-09T16:58:12.089Z,30.68
2024-05-09T17:03:15.820Z,30.62
2024-05-09T17:08:19.865Z,32.13
2024-05-09T17:13:22.795Z,29.55
2024-05-09T17:18:25.442Z,30.67
2024-05-09T17:28:30.477Z,31.72
2024-05-09T17:33:32.938Z,30.05
2024-05-09T17:38:35.378Z,31.72
2024-05-09T17:43:37.730Z,30.81
2024-05-09T17:48:40.201Z,30.71
2024-05-09T17:53:42.603Z,31.40
2024-05-09T17:58:46.578Z,31.72
2024-05-09T18:03:50.174Z,31.18
2024-05-09T18:08:52.713Z,31.62
2024-05-09T18:13:55.041Z,32.34
2024-05-09T18:18:57.670Z,31.11
2024-05-09T18:24:00.445Z,33.21
2024-05-09T18:29:04.171Z,31.80
2024-05-09T18:34:06.597Z,30.18
2024-05-09T18:39:09.250Z,30.84
2024-05-09T18:44:11.628Z,30.49
2024-05-09T18:49:14.151Z,30.56
2024-05-09T18:54:16.747Z,28.17
2024-05-09T18:59:19.122Z,29.06
2024-05-09T19:04:21.568Z,25.64
2024-05-09T19:09:24.071Z,29.48
2024-05-09T19:14:26.427Z,26.74
2024-05-09T19:19:28.960Z,28.26
2024-05-09T19:24:31.685Z,28.22
2024-05-09T19:29:34.063Z,27.62
2024-05-09T19:34:36.409Z,27.26
2024-05-09T19:39:38.767Z,25.68
2024-05-09T19:44:41.071Z,27.45
2024-05-09T19:49:43.517Z,28.08
2024-05-09T19:54:49.644Z,27.63
2024-05-09T19:59:52.056Z,27.52
2024-05-09T20:04:55.054Z,29.36
2024-05-09T20:09:57.555Z,27.73
2024-05-09T20:14:59.961Z,28.71
2024-05-09T20:20:09.159Z,29.87
2024-05-09T20:25:13.734Z,29.10
2024-05-09T20:30:24.748Z,27.29
2024-05-09T20:35:34.150Z,26.61
2024-05-09T20:40:39.050Z,25.46
2024-05-09T20:45:42.339Z,27.69
2024-05-09T20:50:44.827Z,26.64
2024-05-09T20:55:47.410Z,25.94
2024-05-09T21:00:49.871Z,26.75
2024-05-09T21:05:52.434Z,27.52
2024-05-09T21:10:54.940Z,27.99
2024-05-09T21:15:57.488Z,26.17
2024-05-09T21:20:59.903Z,30.65
2024-05-09T21:26:02.209Z,28.87
2024-05-09T21:31:04.882Z,28.86
2024-05-09T21:36:10.060Z,28.53
2024-05-09T21:41:12.363Z,28.36
2024-05-09T21:46:14.832Z,25.50
2024-05-09T21:51:17.304Z,26.96
2024-05-09T21:56:19.604Z,24.88
2024-05-09T22:01:23.031Z,24.99
2024-05-09T22:06:25.355Z,27.09
2024-05-09T22:11:27.776Z,27.75
2024-05-09T22:16:30.256Z,27.75
2024-05-09T22:21:32.700Z,27.88
2024-05-09T22:26:38.151Z,28.64
2024-05-09T22:31:40.475Z,27.60
2024-05-09T22:36:42.812Z,28.26
2024-05-09T22:41:45.704Z,25.90
2024-05-09T22:46:48.111Z,24.19
2024-05-09T22:51:50.554Z,26.31
2024-05-09T22:56:52.873Z,27.71
2024-05-09T23:01:55.340Z,25.45
2024-05-09T23:06:57.802Z,25.92
2024-05-09T23:12:00.234Z,24.68
2024-05-09T23:17:02.679Z,24.67
2024-05-09T23:22:05.250Z,26.39
2024-05-09T23:27:07.701Z,25.01
2024-05-09T23:32:10.069Z,25.18
2024-05-09T23:37:12.394Z,26.53
2024-05-09T23:42:14.737Z,26.62
2024-05-09T23:47:17.063Z,25.91
2024-05-09T23:52:19.582Z,26.15
2024-05-09T23:57:22.162Z,27.71
